sensor_id;sensor_type;location;lat;lon;timestamp;temperature;humidity
31725;DHT22;18306;40.960;14.836;2023-09-08T00:01:03;24.70;96.50
31725;DHT22;18306;40.960;14.836;2023-09-08T00:03:31;24.80;96.50
31725;DHT22;18306;40.960;14.836;2023-09-08T00:05:58;24.80;96.40
31725;DHT22;18306;40.960;14.836;2023-09-08T00:08:24;24.90;96.30
31725;DHT22;18306;40.960;14.836;2023-09-08T00:10:52;24.90;96.20
31725;DHT22;18306;40.960;14.836;2023-09-08T00:13:20;24.80;96.30
31725;DHT22;18306;40.960;14.836;2023-09-08T00:15:47;24.80;96.20
31725;DHT22;18306;40.960;14.836;2023-09-08T00:18:14;24.80;96.20
31725;DHT22;18306;40.960;14.836;2023-09-08T00:20:41;24.80;96.10
31725;DHT22;18306;40.960;14.836;2023-09-08T00:23:08;24.80;96.30
31725;DHT22;18306;40.960;14.836;2023-09-08T00:25:35;24.70;96.60
31725;DHT22;18306;40.960;14.836;2023-09-08T00:28:03;24.70;96.30
31725;DHT22;18306;40.960;14.836;2023-09-08T00:30:30;24.70;96.30
31725;DHT22;18306;40.960;14.836;2023-09-08T00:32:57;24.70;96.40
31725;DHT22;18306;40.960;14.836;2023-09-08T00:35:29;24.80;96.20
31725;DHT22;18306;40.960;14.836;2023-09-08T00:38:09;24.70;96.20
31725;DHT22;18306;40.960;14.836;2023-09-08T00:40:50;24.70;96.40
31725;DHT22;18306;40.960;14.836;2023-09-08T00:43:31;24.60;96.40
31725;DHT22;18306;40.960;14.836;2023-09-08T00:46:04;24.60;96.20
31725;DHT22;18306;40.960;14.836;2023-09-08T00:48:33;24.60;96.40
31725;DHT22;18306;40.960;14.836;2023-09-08T00:51:01;24.50;96.30
31725;DHT22;18306;40.960;14.836;2023-09-08T00:53:29;24.50;96.50
31725;DHT22;18306;40.960;14.836;2023-09-08T00:55:59;24.40;96.50
31725;DHT22;18306;40.960;14.836;2023-09-08T00:58:26;24.30;96.70
31725;DHT22;18306;40.960;14.836;2023-09-08T01:00:54;24.10;96.90
31725;DHT22;18306;40.960;14.836;2023-09-08T01:03:24;24.10;97.00
31725;DHT22;18306;40.960;14.836;2023-09-08T01:05:52;24.10;97.10
31725;DHT22;18306;40.960;14.836;2023-09-08T01:08:19;24.00;97.20
31725;DHT22;18306;40.960;14.836;2023-09-08T01:10:48;24.10;97.10
31725;DHT22;18306;40.960;14.836;2023-09-08T01:13:15;24.10;96.90
31725;DHT22;18306;40.960;14.836;2023-09-08T01:15:42;24.10;96.90
31725;DHT22;18306;40.960;14.836;2023-09-08T01:18:09;24.20;97.10
31725;DHT22;18306;40.960;14.836;2023-09-08T01:23:57;24.10;97.20
31725;DHT22;18306;40.960;14.836;2023-09-08T01:26:34;24.00;97.50
31725;DHT22;18306;40.960;14.836;2023-09-08T01:29:04;23.80;97.70
31725;DHT22;18306;40.960;14.836;2023-09-08T01:31:33;23.80;97.80
31725;DHT22;18306;40.960;14.836;2023-09-08T01:34:01;23.70;97.90
31725;DHT22;18306;40.960;14.836;2023-09-08T01:36:34;23.70;98.10
31725;DHT22;18306;40.960;14.836;2023-09-08T01:39:02;23.70;98.20
31725;DHT22;18306;40.960;14.836;2023-09-08T01:41:30;23.70;98.20
31725;DHT22;18306;40.960;14.836;2023-09-08T01:43:59;23.70;98.20
31725;DHT22;18306;40.960;14.836;2023-09-08T01:46:27;23.70;98.10
31725;DHT22;18306;40.960;14.836;2023-09-08T01:48:55;23.70;98.00
31725;DHT22;18306;40.960;14.836;2023-09-08T01:51:22;23.70;98.10
31725;DHT22;18306;40.960;14.836;2023-09-08T01:53:49;23.80;98.10
31725;DHT22;18306;40.960;14.836;2023-09-08T01:56:16;23.80;97.90
31725;DHT22;18306;40.960;14.836;2023-09-08T01:58:43;23.80;97.80
31725;DHT22;18306;40.960;14.836;2023-09-08T02:01:10;23.90;97.80
31725;DHT22;18306;40.960;14.836;2023-09-08T02:03:39;23.90;97.70
31725;DHT22;18306;40.960;14.836;2023-09-08T02:06:06;23.90;97.80
31725;DHT22;18306;40.960;14.836;2023-09-08T02:08:33;23.80;97.70
31725;DHT22;18306;40.960;14.836;2023-09-08T02:10:59;23.80;97.60
31725;DHT22;18306;40.960;14.836;2023-09-08T02:13:26;23.80;97.70
31725;DHT22;18306;40.960;14.836;2023-09-08T02:15:53;23.80;97.90
31725;DHT22;18306;40.960;14.836;2023-09-08T02:18:20;23.80;97.70
31725;DHT22;18306;40.960;14.836;2023-09-08T02:20:47;23.80;97.80
31725;DHT22;18306;40.960;14.836;2023-09-08T02:23:14;23.80;97.70
31725;DHT22;18306;40.960;14.836;2023-09-08T02:25:41;23.80;97.70
31725;DHT22;18306;40.960;14.836;2023-09-08T02:28:09;23.80;97.60
31725;DHT22;18306;40.960;14.836;2023-09-08T02:30:36;23.80;97.60
31725;DHT22;18306;40.960;14.836;2023-09-08T02:33:03;23.90;97.50
31725;DHT22;18306;40.960;14.836;2023-09-08T02:35:36;23.90;97.50
31725;DHT22;18306;40.960;14.836;2023-09-08T02:38:05;23.80;97.50
31725;DHT22;18306;40.960;14.836;2023-09-08T02:40:33;23.80;97.40
31725;DHT22;18306;40.960;14.836;2023-09-08T02:43:04;23.70;97.40
31725;DHT22;18306;40.960;14.836;2023-09-08T02:45:31;23.70;97.50
31725;DHT22;18306;40.960;14.836;2023-09-08T02:47:58;23.70;97.50
31725;DHT22;18306;40.960;14.836;2023-09-08T02:50:25;23.80;97.60
31725;DHT22;18306;40.960;14.836;2023-09-08T02:52:53;23.80;97.50
31725;DHT22;18306;40.960;14.836;2023-09-08T02:55:20;23.70;97.40
31725;DHT22;18306;40.960;14.836;2023-09-08T02:57:47;23.70;97.40
31725;DHT22;18306;40.960;14.836;2023-09-08T03:00:14;23.70;97.40
31725;DHT22;18306;40.960;14.836;2023-09-08T03:02:41;23.60;97.30
31725;DHT22;18306;40.960;14.836;2023-09-08T03:05:08;23.50;97.40
31725;DHT22;18306;40.960;14.836;2023-09-08T03:07:36;23.40;97.60
31725;DHT22;18306;40.960;14.836;2023-09-08T03:10:04;23.30;97.70
31725;DHT22;18306;40.960;14.836;2023-09-08T03:12:32;23.00;98.10
31725;DHT22;18306;40.960;14.836;2023-09-08T03:15:02;22.80;98.50
31725;DHT22;18306;40.960;14.836;2023-09-08T03:17:31;22.80;98.50
31725;DHT22;18306;40.960;14.836;2023-09-08T03:20:00;22.70;98.50
31725;DHT22;18306;40.960;14.836;2023-09-08T03:22:29;22.80;98.50
31725;DHT22;18306;40.960;14.836;2023-09-08T03:24:55;22.80;98.40
31725;DHT22;18306;40.960;14.836;2023-09-08T03:27:22;22.70;98.30
31725;DHT22;18306;40.960;14.836;2023-09-08T03:29:50;22.70;98.50
31725;DHT22;18306;40.960;14.836;2023-09-08T03:32:17;22.60;98.60
31725;DHT22;18306;40.960;14.836;2023-09-08T03:34:44;22.40;98.80
31725;DHT22;18306;40.960;14.836;2023-09-08T03:37:11;22.40;98.90
31725;DHT22;18306;40.960;14.836;2023-09-08T03:39:38;22.30;99.00
31725;DHT22;18306;40.960;14.836;2023-09-08T03:42:05;22.20;99.10
31725;DHT22;18306;40.960;14.836;2023-09-08T03:44:32;22.20;99.20
31725;DHT22;18306;40.960;14.836;2023-09-08T03:46:59;21.90;99.60
31725;DHT22;18306;40.960;14.836;2023-09-08T03:49:26;22.00;99.50
31725;DHT22;18306;40.960;14.836;2023-09-08T03:51:53;22.00;99.40
31725;DHT22;18306;40.960;14.836;2023-09-08T03:54:20;22.10;99.30
31725;DHT22;18306;40.960;14.836;2023-09-08T03:56:47;22.10;99.20
31725;DHT22;18306;40.960;14.836;2023-09-08T03:59:14;22.10;99.30
31725;DHT22;18306;40.960;14.836;2023-09-08T04:01:41;21.90;99.40
31725;DHT22;18306;40.960;14.836;2023-09-08T04:04:09;21.80;99.50
31725;DHT22;18306;40.960;14.836;2023-09-08T04:06:36;21.80;99.70
31725;DHT22;18306;40.960;14.836;2023-09-08T04:09:03;21.90;99.60
31725;DHT22;18306;40.960;14.836;2023-09-08T04:11:31;21.80;99.40
31725;DHT22;18306;40.960;14.836;2023-09-08T04:13:57;21.90;99.50
31725;DHT22;18306;40.960;14.836;2023-09-08T04:16:26;21.90;99.50
31725;DHT22;18306;40.960;14.836;2023-09-08T04:18:53;21.70;99.50
31725;DHT22;18306;40.960;14.836;2023-09-08T04:21:20;21.70;99.70
31725;DHT22;18306;40.960;14.836;2023-09-08T04:23:47;21.90;99.60
31725;DHT22;18306;40.960;14.836;2023-09-08T04:26:15;21.90;99.40
31725;DHT22;18306;40.960;14.836;2023-09-08T04:28:42;22.10;99.30
31725;DHT22;18306;40.960;14.836;2023-09-08T04:31:09;22.10;99.10
31725;DHT22;18306;40.960;14.836;2023-09-08T04:33:36;22.00;99.10
31725;DHT22;18306;40.960;14.836;2023-09-08T04:36:03;22.00;99.20
31725;DHT22;18306;40.960;14.836;2023-09-08T04:38:30;21.90;99.30
31725;DHT22;18306;40.960;14.836;2023-09-08T04:40:57;21.70;99.50
31725;DHT22;18306;40.960;14.836;2023-09-08T04:43:23;21.50;99.90
31725;DHT22;18306;40.960;14.836;2023-09-08T04:45:51;21.60;99.90
31725;DHT22;18306;40.960;14.836;2023-09-08T04:48:18;21.60;99.90
31725;DHT22;18306;40.960;14.836;2023-09-08T04:50:45;21.40;99.90
31725;DHT22;18306;40.960;14.836;2023-09-08T04:53:12;21.50;99.90
31725;DHT22;18306;40.960;14.836;2023-09-08T04:55:40;21.60;99.90
31725;DHT22;18306;40.960;14.836;2023-09-08T04:58:07;21.50;99.90
31725;DHT22;18306;40.960;14.836;2023-09-08T05:00:34;21.50;99.90
31725;DHT22;18306;40.960;14.836;2023-09-08T05:03:04;21.40;99.90
31725;DHT22;18306;40.960;14.836;2023-09-08T05:05:31;21.20;99.90
31725;DHT22;18306;40.960;14.836;2023-09-08T05:07:58;21.30;99.90
31725;DHT22;18306;40.960;14.836;2023-09-08T05:10:26;21.20;99.90
31725;DHT22;18306;40.960;14.836;2023-09-08T05:12:53;21.20;99.90
31725;DHT22;18306;40.960;14.836;2023-09-08T05:15:21;21.40;99.90
31725;DHT22;18306;40.960;14.836;2023-09-08T05:17:52;21.50;99.90
31725;DHT22;18306;40.960;14.836;2023-09-08T05:20:21;21.60;99.90
31725;DHT22;18306;40.960;14.836;2023-09-08T05:22:48;21.70;99.90
31725;DHT22;18306;40.960;14.836;2023-09-08T05:25:15;21.80;99.90
31725;DHT22;18306;40.960;14.836;2023-09-08T05:27:42;21.80;99.80
31725;DHT22;18306;40.960;14.836;2023-09-08T05:30:10;21.90;99.70
31725;DHT22;18306;40.960;14.836;2023-09-08T05:32:43;21.90;99.60
31725;DHT22;18306;40.960;14.836;2023-09-08T05:35:11;21.90;99.60
31725;DHT22;18306;40.960;14.836;2023-09-08T05:37:38;21.90;99.70
31725;DHT22;18306;40.960;14.836;2023-09-08T05:40:07;21.80;99.80
31725;DHT22;18306;40.960;14.836;2023-09-08T05:42:35;21.50;99.90
31725;DHT22;18306;40.960;14.836;2023-09-08T05:45:02;21.30;99.90
31725;DHT22;18306;40.960;14.836;2023-09-08T05:47:30;21.50;99.90
31725;DHT22;18306;40.960;14.836;2023-09-08T05:49:57;21.80;99.90
31725;DHT22;18306;40.960;14.836;2023-09-08T05:52:24;21.90;99.90
31725;DHT22;18306;40.960;14.836;2023-09-08T05:54:53;22.10;99.90
31725;DHT22;18306;40.960;14.836;2023-09-08T05:57:20;22.20;99.90
31725;DHT22;18306;40.960;14.836;2023-09-08T05:59:48;22.40;99.90
31725;DHT22;18306;40.960;14.836;2023-09-08T06:02:15;22.60;99.90
31725;DHT22;18306;40.960;14.836;2023-09-08T06:04:42;22.70;99.80
31725;DHT22;18306;40.960;14.836;2023-09-08T06:07:09;22.80;99.70
31725;DHT22;18306;40.960;14.836;2023-09-08T06:09:36;22.90;99.60
31725;DHT22;18306;40.960;14.836;2023-09-08T06:12:03;23.10;99.60
31725;DHT22;18306;40.960;14.836;2023-09-08T06:14:31;23.30;99.50
31725;DHT22;18306;40.960;14.836;2023-09-08T06:16:58;23.40;99.50
31725;DHT22;18306;40.960;14.836;2023-09-08T06:19:25;23.50;99.40
31725;DHT22;18306;40.960;14.836;2023-09-08T06:21:52;23.60;99.20
31725;DHT22;18306;40.960;14.836;2023-09-08T06:24:20;23.70;99.30
31725;DHT22;18306;40.960;14.836;2023-09-08T06:26:47;23.70;99.20
31725;DHT22;18306;40.960;14.836;2023-09-08T06:29:14;23.90;99.10
31725;DHT22;18306;40.960;14.836;2023-09-08T06:31:41;24.10;98.70
31725;DHT22;18306;40.960;14.836;2023-09-08T06:34:08;24.40;98.40
31725;DHT22;18306;40.960;14.836;2023-09-08T06:36:35;24.60;97.90
31725;DHT22;18306;40.960;14.836;2023-09-08T06:39:03;24.80;97.50
31725;DHT22;18306;40.960;14.836;2023-09-08T06:41:31;25.00;97.40
31725;DHT22;18306;40.960;14.836;2023-09-08T06:44:01;25.20;97.20
31725;DHT22;18306;40.960;14.836;2023-09-08T06:46:29;25.40;97.20
31725;DHT22;18306;40.960;14.836;2023-09-08T06:48:56;25.60;97.00
31725;DHT22;18306;40.960;14.836;2023-09-08T06:51:23;25.90;96.80
31725;DHT22;18306;40.960;14.836;2023-09-08T06:53:55;26.10;96.50
31725;DHT22;18306;40.960;14.836;2023-09-08T06:56:32;26.20;96.20
31725;DHT22;18306;40.960;14.836;2023-09-08T06:59:00;26.20;96.00
31725;DHT22;18306;40.960;14.836;2023-09-08T07:01:28;26.30;95.90
31725;DHT22;18306;40.960;14.836;2023-09-08T07:03:55;26.20;96.30
31725;DHT22;18306;40.960;14.836;2023-09-08T07:06:23;26.40;96.30
31725;DHT22;18306;40.960;14.836;2023-09-08T07:08:52;26.60;96.20
31725;DHT22;18306;40.960;14.836;2023-09-08T07:11:21;26.70;96.10
31725;DHT22;18306;40.960;14.836;2023-09-08T07:13:49;26.90;95.90
31725;DHT22;18306;40.960;14.836;2023-09-08T07:16:16;26.90;95.70
31725;DHT22;18306;40.960;14.836;2023-09-08T07:18:43;27.10;95.50
31725;DHT22;18306;40.960;14.836;2023-09-08T07:21:11;27.00;95.10
31725;DHT22;18306;40.960;14.836;2023-09-08T07:23:37;27.10;95.20
31725;DHT22;18306;40.960;14.836;2023-09-08T07:26:07;27.30;95.10
31725;DHT22;18306;40.960;14.836;2023-09-08T07:28:35;27.30;94.40
31725;DHT22;18306;40.960;14.836;2023-09-08T07:31:05;27.90;94.80
31725;DHT22;18306;40.960;14.836;2023-09-08T07:33:36;28.90;94.40
31725;DHT22;18306;40.960;14.836;2023-09-08T07:36:05;30.00;93.10
31725;DHT22;18306;40.960;14.836;2023-09-08T07:38:33;31.10;90.90
31725;DHT22;18306;40.960;14.836;2023-09-08T07:41:04;31.90;90.20
31725;DHT22;18306;40.960;14.836;2023-09-08T07:43:31;32.50;88.00
31725;DHT22;18306;40.960;14.836;2023-09-08T07:45:59;32.30;87.00
31725;DHT22;18306;40.960;14.836;2023-09-08T07:48:27;32.40;87.80
31725;DHT22;18306;40.960;14.836;2023-09-08T07:50:56;32.50;87.40
31725;DHT22;18306;40.960;14.836;2023-09-08T07:53:28;32.80;87.30
31725;DHT22;18306;40.960;14.836;2023-09-08T07:55:54;32.90;86.70
31725;DHT22;18306;40.960;14.836;2023-09-08T07:58:22;33.10;87.20
31725;DHT22;18306;40.960;14.836;2023-09-08T08:00:49;32.90;87.30
31725;DHT22;18306;40.960;14.836;2023-09-08T08:03:16;32.60;86.80
31725;DHT22;18306;40.960;14.836;2023-09-08T08:05:43;32.20;87.50
31725;DHT22;18306;40.960;14.836;2023-09-08T08:08:10;31.80;88.20
31725;DHT22;18306;40.960;14.836;2023-09-08T08:10:37;31.60;89.10
31725;DHT22;18306;40.960;14.836;2023-09-08T08:13:04;31.20;90.20
31725;DHT22;18306;40.960;14.836;2023-09-08T08:15:39;30.90;90.40
31725;DHT22;18306;40.960;14.836;2023-09-08T08:18:07;30.60;90.60
31725;DHT22;18306;40.960;14.836;2023-09-08T08:20:34;30.30;91.00
31725;DHT22;18306;40.960;14.836;2023-09-08T08:23:02;29.90;91.30
31725;DHT22;18306;40.960;14.836;2023-09-08T08:25:30;30.00;91.70
31725;DHT22;18306;40.960;14.836;2023-09-08T08:27:57;30.10;91.70
31725;DHT22;18306;40.960;14.836;2023-09-08T08:30:25;30.00;91.70
31725;DHT22;18306;40.960;14.836;2023-09-08T08:32:52;30.10;92.00
31725;DHT22;18306;40.960;14.836;2023-09-08T08:35:20;30.00;91.70
31725;DHT22;18306;40.960;14.836;2023-09-08T08:37:47;30.10;92.00
31725;DHT22;18306;40.960;14.836;2023-09-08T08:40:14;30.00;91.70
31725;DHT22;18306;40.960;14.836;2023-09-08T08:42:41;29.90;92.20
31725;DHT22;18306;40.960;14.836;2023-09-08T08:45:11;29.90;92.10
31725;DHT22;18306;40.960;14.836;2023-09-08T08:47:39;29.80;91.80
31725;DHT22;18306;40.960;14.836;2023-09-08T08:50:08;29.80;92.20
31725;DHT22;18306;40.960;14.836;2023-09-08T08:52:40;29.60;92.20
31725;DHT22;18306;40.960;14.836;2023-09-08T08:55:09;29.70;92.30
31725;DHT22;18306;40.960;14.836;2023-09-08T08:57:50;29.70;92.20
31725;DHT22;18306;40.960;14.836;2023-09-08T09:00:21;29.70;92.20
31725;DHT22;18306;40.960;14.836;2023-09-08T09:02:52;29.70;92.20
31725;DHT22;18306;40.960;14.836;2023-09-08T09:05:20;29.80;92.30
31725;DHT22;18306;40.960;14.836;2023-09-08T09:07:48;29.90;92.00
31725;DHT22;18306;40.960;14.836;2023-09-08T09:10:16;29.70;91.80
31725;DHT22;18306;40.960;14.836;2023-09-08T09:12:44;29.70;92.00
31725;DHT22;18306;40.960;14.836;2023-09-08T09:15:12;29.90;92.20
31725;DHT22;18306;40.960;14.836;2023-09-08T09:17:44;30.00;92.00
31725;DHT22;18306;40.960;14.836;2023-09-08T09:20:24;29.80;91.80
31725;DHT22;18306;40.960;14.836;2023-09-08T09:22:51;30.00;92.10
31725;DHT22;18306;40.960;14.836;2023-09-08T09:25:27;30.00;91.80
31725;DHT22;18306;40.960;14.836;2023-09-08T09:27:59;30.00;91.60
31725;DHT22;18306;40.960;14.836;2023-09-08T09:30:49;30.20;92.10
31725;DHT22;18306;40.960;14.836;2023-09-08T09:33:17;30.30;91.60
31725;DHT22;18306;40.960;14.836;2023-09-08T09:35:49;30.10;91.60
31725;DHT22;18306;40.960;14.836;2023-09-08T09:38:17;30.30;91.50
31725;DHT22;18306;40.960;14.836;2023-09-08T09:40:46;30.50;91.50
31725;DHT22;18306;40.960;14.836;2023-09-08T09:43:16;30.30;91.30
31725;DHT22;18306;40.960;14.836;2023-09-08T09:45:44;30.30;90.80
31725;DHT22;18306;40.960;14.836;2023-09-08T09:48:11;30.30;90.90
31725;DHT22;18306;40.960;14.836;2023-09-08T09:50:40;30.30;90.90
31725;DHT22;18306;40.960;14.836;2023-09-08T09:53:09;30.40;90.50
31725;DHT22;18306;40.960;14.836;2023-09-08T09:55:39;30.30;90.50
31725;DHT22;18306;40.960;14.836;2023-09-08T09:58:07;30.50;90.90
31725;DHT22;18306;40.960;14.836;2023-09-08T10:00:35;30.60;90.50
31725;DHT22;18306;40.960;14.836;2023-09-08T10:03:07;30.60;90.40
31725;DHT22;18306;40.960;14.836;2023-09-08T10:05:36;30.60;90.30
31725;DHT22;18306;40.960;14.836;2023-09-08T10:08:04;30.70;90.20
31725;DHT22;18306;40.960;14.836;2023-09-08T10:10:32;30.90;90.40
31725;DHT22;18306;40.960;14.836;2023-09-08T10:13:03;31.10;90.00
31725;DHT22;18306;40.960;14.836;2023-09-08T10:15:33;31.10;89.20
31725;DHT22;18306;40.960;14.836;2023-09-08T10:18:04;31.10;89.10
31725;DHT22;18306;40.960;14.836;2023-09-08T10:20:33;31.10;88.40
31725;DHT22;18306;40.960;14.836;2023-09-08T10:26:00;31.10;88.00
31725;DHT22;18306;40.960;14.836;2023-09-08T10:28:32;31.20;88.70
31725;DHT22;18306;40.960;14.836;2023-09-08T10:30:59;31.20;88.00
31725;DHT22;18306;40.960;14.836;2023-09-08T10:33:30;31.20;88.70
31725;DHT22;18306;40.960;14.836;2023-09-08T10:35:58;31.10;88.20
31725;DHT22;18306;40.960;14.836;2023-09-08T10:38:30;31.40;88.30
31725;DHT22;18306;40.960;14.836;2023-09-08T10:43:43;31.20;86.90
31725;DHT22;18306;40.960;14.836;2023-09-08T10:46:14;31.20;87.50
31725;DHT22;18306;40.960;14.836;2023-09-08T10:48:48;31.10;86.70
31725;DHT22;18306;40.960;14.836;2023-09-08T10:51:18;31.10;86.90
31725;DHT22;18306;40.960;14.836;2023-09-08T10:53:49;31.20;86.70
31725;DHT22;18306;40.960;14.836;2023-09-08T10:56:19;31.60;87.70
31725;DHT22;18306;40.960;14.836;2023-09-08T10:58:50;31.80;87.60
31725;DHT22;18306;40.960;14.836;2023-09-08T11:01:20;31.60;86.60
31725;DHT22;18306;40.960;14.836;2023-09-08T11:03:54;31.60;86.40
31725;DHT22;18306;40.960;14.836;2023-09-08T11:06:21;31.80;85.20
31725;DHT22;18306;40.960;14.836;2023-09-08T11:09:08;31.90;85.90
31725;DHT22;18306;40.960;14.836;2023-09-08T11:11:43;31.80;84.80
31725;DHT22;18306;40.960;14.836;2023-09-08T11:14:10;31.10;84.40
31725;DHT22;18306;40.960;14.836;2023-09-08T11:16:37;31.30;85.40
31725;DHT22;18306;40.960;14.836;2023-09-08T11:19:04;31.50;85.20
31725;DHT22;18306;40.960;14.836;2023-09-08T11:21:31;31.50;84.60
31725;DHT22;18306;40.960;14.836;2023-09-08T11:24:02;31.60;84.70
31725;DHT22;18306;40.960;14.836;2023-09-08T11:26:34;31.70;84.90
31725;DHT22;18306;40.960;14.836;2023-09-08T11:29:04;31.60;84.20
31725;DHT22;18306;40.960;14.836;2023-09-08T11:31:32;31.60;84.90
31725;DHT22;18306;40.960;14.836;2023-09-08T11:33:59;31.70;85.00
31725;DHT22;18306;40.960;14.836;2023-09-08T11:36:26;31.70;84.10
31725;DHT22;18306;40.960;14.836;2023-09-08T11:38:55;31.90;84.00
31725;DHT22;18306;40.960;14.836;2023-09-08T11:41:22;32.00;83.00
31725;DHT22;18306;40.960;14.836;2023-09-08T11:43:50;31.90;83.30
31725;DHT22;18306;40.960;14.836;2023-09-08T11:46:18;31.50;82.30
31725;DHT22;18306;40.960;14.836;2023-09-08T11:48:46;31.30;83.30
31725;DHT22;18306;40.960;14.836;2023-09-08T11:51:13;31.40;84.50
31725;DHT22;18306;40.960;14.836;2023-09-08T11:53:41;31.70;83.30
31725;DHT22;18306;40.960;14.836;2023-09-08T11:56:13;31.70;83.70
31725;DHT22;18306;40.960;14.836;2023-09-08T11:58:41;31.60;84.60
31725;DHT22;18306;40.960;14.836;2023-09-08T12:01:09;31.70;84.10
31725;DHT22;18306;40.960;14.836;2023-09-08T12:03:56;31.70;82.10
31725;DHT22;18306;40.960;14.836;2023-09-08T12:06:27;31.40;82.40
31725;DHT22;18306;40.960;14.836;2023-09-08T12:08:56;31.60;83.50
31725;DHT22;18306;40.960;14.836;2023-09-08T12:11:23;31.50;83.00
31725;DHT22;18306;40.960;14.836;2023-09-08T12:13:50;31.60;82.60
31725;DHT22;18306;40.960;14.836;2023-09-08T12:16:21;31.70;82.40
31725;DHT22;18306;40.960;14.836;2023-09-08T16:59:28;30.40;85.50
31725;DHT22;18306;40.960;14.836;2023-09-08T17:01:56;30.40;85.70
31725;DHT22;18306;40.960;14.836;2023-09-08T17:04:23;30.50;85.60
31725;DHT22;18306;40.960;14.836;2023-09-08T17:06:50;30.50;85.70
31725;DHT22;18306;40.960;14.836;2023-09-08T17:09:21;30.50;86.70
31725;DHT22;18306;40.960;14.836;2023-09-08T17:12:58;30.50;85.50
31725;DHT22;18306;40.960;14.836;2023-09-08T17:15:38;30.50;87.00
31725;DHT22;18306;40.960;14.836;2023-09-08T17:18:07;30.40;87.80
31725;DHT22;18306;40.960;14.836;2023-09-08T17:20:34;30.40;88.20
31725;DHT22;18306;40.960;14.836;2023-09-08T17:23:03;30.30;88.60
31725;DHT22;18306;40.960;14.836;2023-09-08T17:25:30;30.20;88.70
31725;DHT22;18306;40.960;14.836;2023-09-08T17:27:58;30.20;89.00
31725;DHT22;18306;40.960;14.836;2023-09-08T17:30:25;30.00;89.20
31725;DHT22;18306;40.960;14.836;2023-09-08T17:32:52;29.90;89.00
31725;DHT22;18306;40.960;14.836;2023-09-08T17:35:19;29.90;89.30
31725;DHT22;18306;40.960;14.836;2023-09-08T17:37:52;29.80;89.70
31725;DHT22;18306;40.960;14.836;2023-09-08T17:40:20;29.60;89.90
31725;DHT22;18306;40.960;14.836;2023-09-08T17:42:47;29.50;90.00
31725;DHT22;18306;40.960;14.836;2023-09-08T17:45:14;29.40;90.10
31725;DHT22;18306;40.960;14.836;2023-09-08T17:47:43;29.40;90.20
31725;DHT22;18306;40.960;14.836;2023-09-08T17:50:11;29.40;90.20
31725;DHT22;18306;40.960;14.836;2023-09-08T17:52:40;29.30;90.30
31725;DHT22;18306;40.960;14.836;2023-09-08T17:55:08;29.00;90.80
31725;DHT22;18306;40.960;14.836;2023-09-08T17:57:35;29.10;90.60
31725;DHT22;18306;40.960;14.836;2023-09-08T18:00:04;29.10;90.50
31725;DHT22;18306;40.960;14.836;2023-09-08T18:02:34;29.10;90.60
31725;DHT22;18306;40.960;14.836;2023-09-08T18:05:01;29.00;90.60
31725;DHT22;18306;40.960;14.836;2023-09-08T18:07:28;29.00;90.70
31725;DHT22;18306;40.960;14.836;2023-09-08T18:09:55;29.00;90.70
31725;DHT22;18306;40.960;14.836;2023-09-08T18:12:23;28.90;90.60
31725;DHT22;18306;40.960;14.836;2023-09-08T18:14:54;28.90;90.70
31725;DHT22;18306;40.960;14.836;2023-09-08T18:17:21;28.80;90.70
31725;DHT22;18306;40.960;14.836;2023-09-08T18:19:48;28.80;90.70
31725;DHT22;18306;40.960;14.836;2023-09-08T18:22:15;28.80;90.80
31725;DHT22;18306;40.960;14.836;2023-09-08T18:24:43;28.70;90.80
31725;DHT22;18306;40.960;14.836;2023-09-08T18:27:10;28.50;90.80
31725;DHT22;18306;40.960;14.836;2023-09-08T18:29:36;28.50;91.20
31725;DHT22;18306;40.960;14.836;2023-09-08T18:32:04;28.50;91.00
31725;DHT22;18306;40.960;14.836;2023-09-08T18:34:31;28.50;91.00
31725;DHT22;18306;40.960;14.836;2023-09-08T18:36:58;28.50;91.00
31725;DHT22;18306;40.960;14.836;2023-09-08T18:39:25;28.50;90.80
31725;DHT22;18306;40.960;14.836;2023-09-08T18:41:52;28.50;90.90
31725;DHT22;18306;40.960;14.836;2023-09-08T18:44:19;28.40;90.80
31725;DHT22;18306;40.960;14.836;2023-09-08T18:46:46;28.40;90.90
31725;DHT22;18306;40.960;14.836;2023-09-08T18:49:14;28.20;91.10
31725;DHT22;18306;40.960;14.836;2023-09-08T18:51:42;28.00;91.00
31725;DHT22;18306;40.960;14.836;2023-09-08T18:54:09;27.70;91.30
31725;DHT22;18306;40.960;14.836;2023-09-08T18:56:36;27.50;91.50
31725;DHT22;18306;40.960;14.836;2023-09-08T18:59:04;27.50;91.70
31725;DHT22;18306;40.960;14.836;2023-09-08T19:01:31;27.50;91.80
31725;DHT22;18306;40.960;14.836;2023-09-08T19:03:58;27.50;91.80
31725;DHT22;18306;40.960;14.836;2023-09-08T19:06:25;27.40;91.80
31725;DHT22;18306;40.960;14.836;2023-09-08T19:08:57;27.50;91.90
31725;DHT22;18306;40.960;14.836;2023-09-08T19:11:26;27.50;91.80
31725;DHT22;18306;40.960;14.836;2023-09-08T19:13:56;27.60;91.70
31725;DHT22;18306;40.960;14.836;2023-09-08T19:16:23;27.70;91.70
31725;DHT22;18306;40.960;14.836;2023-09-08T19:18:51;27.70;91.60
31725;DHT22;18306;40.960;14.836;2023-09-08T19:21:20;27.70;91.50
31725;DHT22;18306;40.960;14.836;2023-09-08T19:23:46;27.60;91.30
31725;DHT22;18306;40.960;14.836;2023-09-08T19:26:16;27.70;91.50
31725;DHT22;18306;40.960;14.836;2023-09-08T19:28:43;27.70;91.40
31725;DHT22;18306;40.960;14.836;2023-09-08T19:31:10;27.80;91.50
31725;DHT22;18306;40.960;14.836;2023-09-08T19:33:37;27.80;91.20
31725;DHT22;18306;40.960;14.836;2023-09-08T19:36:04;27.80;91.20
31725;DHT22;18306;40.960;14.836;2023-09-08T19:38:36;27.70;91.70
31725;DHT22;18306;40.960;14.836;2023-09-08T19:41:03;27.60;91.80
31725;DHT22;18306;40.960;14.836;2023-09-08T19:43:31;27.30;92.10
31725;DHT22;18306;40.960;14.836;2023-09-08T19:46:03;27.40;92.00
31725;DHT22;18306;40.960;14.836;2023-09-08T19:48:40;27.40;91.90
31725;DHT22;18306;40.960;14.836;2023-09-08T19:51:07;27.40;91.90
31725;DHT22;18306;40.960;14.836;2023-09-08T19:53:34;27.30;92.20
31725;DHT22;18306;40.960;14.836;2023-09-08T19:56:01;27.20;92.30
31725;DHT22;18306;40.960;14.836;2023-09-08T19:58:28;27.00;92.40
31725;DHT22;18306;40.960;14.836;2023-09-08T20:01:03;27.10;92.40
31725;DHT22;18306;40.960;14.836;2023-09-08T20:03:30;27.00;92.80
31725;DHT22;18306;40.960;14.836;2023-09-08T20:06:00;26.80;92.70
31725;DHT22;18306;40.960;14.836;2023-09-08T20:08:27;26.70;92.80
31725;DHT22;18306;40.960;14.836;2023-09-08T20:10:54;26.80;92.70
31725;DHT22;18306;40.960;14.836;2023-09-08T20:13:21;26.70;92.90